sensor_id;sensor_type;location;lat;lon;timestamp;pressure;altitude;pressure_sealevel;temperature;humidity
61434;BME280;47300;46.192;9.000;2022-12-18T00:01:47;99316.53;;;1.11;88.01
61434;BME280;47300;46.192;9.000;2022-12-18T00:04:23;99321.25;;;1.20;85.57
61434;BME280;47300;46.192;9.000;2022-12-18T00:06:49;99324.38;;;1.12;88.58
61434;BME280;47300;46.192;9.000;2022-12-18T00:09:15;99328.44;;;1.07;88.09
61434;BME280;47300;46.192;9.000;2022-12-18T00:11:41;99335.91;;;1.19;88.35
61434;BME280;47300;46.192;9.000;2022-12-18T00:14:06;99344.09;;;1.28;85.78
61434;BME280;47300;46.192;9.000;2022-12-18T00:16:32;99348.16;;;1.41;86.40
61434;BME280;47300;46.192;9.000;2022-12-18T00:19:01;99357.88;;;1.47;85.95
61434;BME280;47300;46.192;9.000;2022-12-18T00:21:27;99352.03;;;1.51;76.83
61434;BME280;47300;46.192;9.000;2022-12-18T00:23:53;99359.78;;;1.51;83.78
61434;BME280;47300;46.192;9.000;2022-12-18T00:26:29;99359.16;;;1.55;80.41
61434;BME280;47300;46.192;9.000;2022-12-18T00:28:58;99355.81;;;1.58;77.49
61434;BME280;47300;46.192;9.000;2022-12-18T00:31:25;99358.22;;;1.35;77.09
61434;BME280;47300;46.192;9.000;2022-12-18T00:33:51;99355.44;;;1.50;74.80
61434;BME280;47300;46.192;9.000;2022-12-18T00:36:19;99351.56;;;1.40;77.45
61434;BME280;47300;46.192;9.000;2022-12-18T00:38:46;99359.00;;;1.52;79.30
61434;BME280;47300;46.192;9.000;2022-12-18T00:41:14;99362.72;;;1.39;81.46
61434;BME280;47300;46.192;9.000;2022-12-18T00:44:00;99357.88;;;1.47;80.34
61434;BME280;47300;46.192;9.000;2022-12-18T00:46:25;99372.25;;;1.40;80.08
61434;BME280;47300;46.192;9.000;2022-12-18T00:48:51;99367.34;;;1.47;80.49
61434;BME280;47300;46.192;9.000;2022-12-18T00:51:16;99369.94;;;1.47;81.95
61434;BME280;47300;46.192;9.000;2022-12-18T00:53:41;99381.25;;;1.49;81.79
61434;BME280;47300;46.192;9.000;2022-12-18T00:56:06;99386.34;;;1.47;82.17
61434;BME280;47300;46.192;9.000;2022-12-18T00:58:37;99379.53;;;1.31;82.49
61434;BME280;47300;46.192;9.000;2022-12-18T01:01:06;99390.19;;;1.01;84.38
61434;BME280;47300;46.192;9.000;2022-12-18T01:03:31;99390.50;;;1.25;81.80
61434;BME280;47300;46.192;9.000;2022-12-18T01:05:57;99391.31;;;1.24;83.47
61434;BME280;47300;46.192;9.000;2022-12-18T01:08:22;99393.00;;;1.06;81.52
61434;BME280;47300;46.192;9.000;2022-12-18T01:10:48;99396.78;;;1.12;80.43
61434;BME280;47300;46.192;9.000;2022-12-18T01:13:13;99400.41;;;1.16;76.71
61434;BME280;47300;46.192;9.000;2022-12-18T01:15:39;99399.91;;;1.41;70.33
61434;BME280;47300;46.192;9.000;2022-12-18T01:18:05;99401.28;;;1.53;74.66
61434;BME280;47300;46.192;9.000;2022-12-18T01:20:31;99408.66;;;1.63;77.07
61434;BME280;47300;46.192;9.000;2022-12-18T01:22:56;99406.16;;;1.65;75.22
61434;BME280;47300;46.192;9.000;2022-12-18T01:25:21;99412.34;;;1.68;78.40
61434;BME280;47300;46.192;9.000;2022-12-18T01:27:46;99415.88;;;1.70;76.38
61434;BME280;47300;46.192;9.000;2022-12-18T01:30:12;99424.69;;;1.74;76.79
61434;BME280;47300;46.192;9.000;2022-12-18T01:32:37;99426.56;;;1.77;76.50
61434;BME280;47300;46.192;9.000;2022-12-18T01:35:03;99426.91;;;1.66;76.56
61434;BME280;47300;46.192;9.000;2022-12-18T01:37:29;99437.06;;;1.43;70.68
61434;BME280;47300;46.192;9.000;2022-12-18T01:39:54;99429.16;;;1.22;75.72
61434;BME280;47300;46.192;9.000;2022-12-18T01:42:20;99433.28;;;1.37;75.80
61434;BME280;47300;46.192;9.000;2022-12-18T01:50:19;99434.25;;;1.57;74.84
61434;BME280;47300;46.192;9.000;2022-12-18T01:52:51;99435.59;;;1.67;75.60
61434;BME280;47300;46.192;9.000;2022-12-18T01:55:19;99435.59;;;1.67;70.97
61434;BME280;47300;46.192;9.000;2022-12-18T01:57:46;99430.31;;;1.65;74.74
61434;BME280;47300;46.192;9.000;2022-12-18T02:00:20;99428.34;;;1.59;74.58
61434;BME280;47300;46.192;9.000;2022-12-18T02:02:46;99428.06;;;1.53;77.16
61434;BME280;47300;46.192;9.000;2022-12-18T02:05:16;99423.53;;;1.49;75.50
61434;BME280;47300;46.192;9.000;2022-12-18T02:08:09;99424.72;;;1.20;77.41
61434;BME280;47300;46.192;9.000;2022-12-18T02:13:21;99419.09;;;1.28;77.69
61434;BME280;47300;46.192;9.000;2022-12-18T02:16:12;99417.03;;;1.21;77.68
61434;BME280;47300;46.192;9.000;2022-12-18T02:18:46;99423.09;;;1.22;76.73
61434;BME280;47300;46.192;9.000;2022-12-18T02:21:36;99427.41;;;1.05;78.55
61434;BME280;47300;46.192;9.000;2022-12-18T02:24:32;99425.38;;;1.15;78.44
61434;BME280;47300;46.192;9.000;2022-12-18T02:27:00;99432.84;;;1.27;77.47
61434;BME280;47300;46.192;9.000;2022-12-18T02:29:49;99425.81;;;1.25;79.58
61434;BME280;47300;46.192;9.000;2022-12-18T02:32:21;99440.53;;;1.26;77.12
61434;BME280;47300;46.192;9.000;2022-12-18T02:34:50;99431.22;;;1.29;75.91
61434;BME280;47300;46.192;9.000;2022-12-18T02:37:18;99451.16;;;1.32;76.46
61434;BME280;47300;46.192;9.000;2022-12-18T02:39:46;99445.13;;;1.32;73.10
61434;BME280;47300;46.192;9.000;2022-12-18T02:42:13;99450.16;;;1.28;74.05
61434;BME280;47300;46.192;9.000;2022-12-18T02:44:43;99443.19;;;1.27;73.14
61434;BME280;47300;46.192;9.000;2022-12-18T02:47:10;99440.53;;;1.26;73.19
61434;BME280;47300;46.192;9.000;2022-12-18T02:50:07;99458.75;;;1.11;71.56
61434;BME280;47300;46.192;9.000;2022-12-18T02:56:54;99467.31;;;0.75;77.10
61434;BME280;47300;46.192;9.000;2022-12-18T02:59:02;99469.91;;;0.75;81.10
61434;BME280;47300;46.192;9.000;2022-12-18T03:01:43;99479.03;;;0.85;79.34
61434;BME280;47300;46.192;9.000;2022-12-18T03:04:26;99478.06;;;0.83;80.54
61434;BME280;47300;46.192;9.000;2022-12-18T03:06:56;99481.13;;;0.92;80.61
61434;BME280;47300;46.192;9.000;2022-12-18T03:09:29;99482.31;;;0.99;81.07
61434;BME280;47300;46.192;9.000;2022-12-18T03:12:03;99485.06;;;1.02;79.94
61434;BME280;47300;46.192;9.000;2022-12-18T03:17:19;99488.09;;;0.77;81.27
61434;BME280;47300;46.192;9.000;2022-12-18T03:19:46;99485.16;;;0.87;79.22
61434;BME280;47300;46.192;9.000;2022-12-18T03:22:13;99484.66;;;0.94;79.22
61434;BME280;47300;46.192;9.000;2022-12-18T03:24:39;99492.16;;;0.90;78.72
61434;BME280;47300;46.192;9.000;2022-12-18T03:27:10;99488.16;;;0.95;78.84
61434;BME280;47300;46.192;9.000;2022-12-18T03:29:47;99491.09;;;1.03;78.00
61434;BME280;47300;46.192;9.000;2022-12-18T03:32:35;99484.94;;;1.17;79.82
61434;BME280;47300;46.192;9.000;2022-12-18T03:35:05;99487.56;;;1.00;82.70
61434;BME280;47300;46.192;9.000;2022-12-18T03:37:31;99494.91;;;1.09;79.28
61434;BME280;47300;46.192;9.000;2022-12-18T03:39:56;99482.94;;;1.11;78.76
61434;BME280;47300;46.192;9.000;2022-12-18T03:45:11;99487.81;;;0.89;81.05
61434;BME280;47300;46.192;9.000;2022-12-18T03:50:18;99499.47;;;0.80;82.69
61434;BME280;47300;46.192;9.000;2022-12-18T03:53:00;99501.22;;;0.98;80.22
61434;BME280;47300;46.192;9.000;2022-12-18T03:55:32;99497.75;;;0.97;80.85
61434;BME280;47300;46.192;9.000;2022-12-18T03:57:59;99502.03;;;0.97;78.88
61434;BME280;47300;46.192;9.000;2022-12-18T04:00:27;99497.72;;;1.32;75.86
61434;BME280;47300;46.192;9.000;2022-12-18T04:02:55;99490.34;;;1.22;78.94
61434;BME280;47300;46.192;9.000;2022-12-18T04:05:23;99501.06;;;1.29;79.60
61434;BME280;47300;46.192;9.000;2022-12-18T04:07:50;99507.06;;;1.28;79.90
61434;BME280;47300;46.192;9.000;2022-12-18T04:10:17;99510.75;;;1.34;80.73
61434;BME280;47300;46.192;9.000;2022-12-18T04:12:42;99513.91;;;1.28;80.23
61434;BME280;47300;46.192;9.000;2022-12-18T04:15:09;99522.72;;;1.32;81.48
61434;BME280;47300;46.192;9.000;2022-12-18T04:17:34;99529.78;;;1.34;80.43
61434;BME280;47300;46.192;9.000;2022-12-18T04:19:59;99539.31;;;1.35;80.39
61434;BME280;47300;46.192;9.000;2022-12-18T04:22:25;99535.38;;;1.25;80.09
61434;BME280;47300;46.192;9.000;2022-12-18T04:24:50;99539.03;;;1.12;81.54
61434;BME280;47300;46.192;9.000;2022-12-18T04:27:15;99548.84;;;1.20;82.91
61434;BME280;47300;46.192;9.000;2022-12-18T04:29:41;99557.53;;;1.20;77.39
61434;BME280;47300;46.192;9.000;2022-12-18T04:32:07;99551.38;;;1.18;81.73
61434;BME280;47300;46.192;9.000;2022-12-18T04:34:32;99553.97;;;1.01;82.86
61434;BME280;47300;46.192;9.000;2022-12-18T04:36:57;99558.59;;;0.74;81.46
61434;BME280;47300;46.192;9.000;2022-12-18T04:39:23;99558.91;;;0.80;83.70
61434;BME280;47300;46.192;9.000;2022-12-18T04:41:48;99571.97;;;0.50;86.08
61434;BME280;47300;46.192;9.000;2022-12-18T04:44:13;99578.50;;;0.43;83.57
61434;BME280;47300;46.192;9.000;2022-12-18T04:46:39;99578.19;;;0.54;83.49
61434;BME280;47300;46.192;9.000;2022-12-18T04:49:04;99579.81;;;0.52;83.23
61434;BME280;47300;46.192;9.000;2022-12-18T04:51:29;99588.97;;;0.62;81.61
61434;BME280;47300;46.192;9.000;2022-12-18T04:53:55;99588.47;;;0.69;80.25
61434;BME280;47300;46.192;9.000;2022-12-18T04:56:21;99589.22;;;0.83;78.92
61434;BME280;47300;46.192;9.000;2022-12-18T04:58:46;99587.19;;;0.94;79.86
61434;BME280;47300;46.192;9.000;2022-12-18T05:01:14;99587.69;;;1.03;80.54
61434;BME280;47300;46.192;9.000;2022-12-18T05:03:40;99581.06;;;1.08;80.32
61434;BME280;47300;46.192;9.000;2022-12-18T05:06:06;99586.22;;;1.08;79.86
61434;BME280;47300;46.192;9.000;2022-12-18T05:08:32;99587.81;;;0.90;80.14
61434;BME280;47300;46.192;9.000;2022-12-18T05:11:05;99589.06;;;0.80;81.49
61434;BME280;47300;46.192;9.000;2022-12-18T05:13:31;99589.13;;;0.81;84.00
61434;BME280;47300;46.192;9.000;2022-12-18T05:15:57;99596.13;;;0.67;83.78
61434;BME280;47300;46.192;9.000;2022-12-18T05:18:24;99599.28;;;0.78;82.71
61434;BME280;47300;46.192;9.000;2022-12-18T05:20:50;99601.63;;;0.57;82.89
61434;BME280;47300;46.192;9.000;2022-12-18T05:23:16;99608.38;;;0.38;85.38
61434;BME280;47300;46.192;9.000;2022-12-18T05:25:42;99609.53;;;0.60;81.78
61434;BME280;47300;46.192;9.000;2022-12-18T05:28:07;99623.25;;;0.59;81.44
61434;BME280;47300;46.192;9.000;2022-12-18T05:30:32;99610.00;;;0.53;79.78
61434;BME280;47300;46.192;9.000;2022-12-18T05:32:58;99617.31;;;0.77;80.49
61434;BME280;47300;46.192;9.000;2022-12-18T05:35:23;99621.44;;;0.73;79.19
61434;BME280;47300;46.192;9.000;2022-12-18T05:37:48;99615.97;;;0.52;78.37
61434;BME280;47300;46.192;9.000;2022-12-18T05:40:14;99619.06;;;0.61;80.14
61434;BME280;47300;46.192;9.000;2022-12-18T05:42:39;99626.16;;;0.65;78.85
61434;BME280;47300;46.192;9.000;2022-12-18T05:45:05;99633.53;;;0.57;77.94
61434;BME280;47300;46.192;9.000;2022-12-18T05:47:30;99628.59;;;0.62;76.68
61434;BME280;47300;46.192;9.000;2022-12-18T05:49:56;99639.09;;;0.65;76.93
61434;BME280;47300;46.192;9.000;2022-12-18T05:52:21;99633.16;;;0.51;77.01
61434;BME280;47300;46.192;9.000;2022-12-18T05:54:47;99634.13;;;0.53;78.52
61434;BME280;47300;46.192;9.000;2022-12-18T05:57:12;99638.59;;;0.56;74.83
61434;BME280;47300;46.192;9.000;2022-12-18T05:59:37;99643.38;;;0.65;69.22
61434;BME280;47300;46.192;9.000;2022-12-18T06:02:03;99643.56;;;0.68;70.39
61434;BME280;47300;46.192;9.000;2022-12-18T06:04:29;99635.41;;;0.77;64.57
61434;BME280;47300;46.192;9.000;2022-12-18T06:06:55;99639.25;;;0.68;67.75
61434;BME280;47300;46.192;9.000;2022-12-18T06:09:20;99638.16;;;0.80;69.98
61434;BME280;47300;46.192;9.000;2022-12-18T06:11:45;99644.47;;;0.85;70.33
61434;BME280;47300;46.192;9.000;2022-12-18T06:14:11;99648.84;;;0.86;70.69
61434;BME280;47300;46.192;9.000;2022-12-18T06:16:36;99661.28;;;0.77;73.51
61434;BME280;47300;46.192;9.000;2022-12-18T06:19:04;99655.19;;;0.76;74.14
61434;BME280;47300;46.192;9.000;2022-12-18T06:21:30;99660.47;;;0.78;71.30
61434;BME280;47300;46.192;9.000;2022-12-18T06:23:57;99658.72;;;0.62;75.98
61434;BME280;47300;46.192;9.000;2022-12-18T06:26:23;99660.53;;;0.79;68.82
61434;BME280;47300;46.192;9.000;2022-12-18T06:28:48;99667.31;;;0.94;64.80
61434;BME280;47300;46.192;9.000;2022-12-18T06:31:14;99670.34;;;1.01;64.54
61434;BME280;47300;46.192;9.000;2022-12-18T06:33:39;99663.66;;;1.05;64.38
61434;BME280;47300;46.192;9.000;2022-12-18T06:36:14;99669.69;;;1.06;61.76
61434;BME280;47300;46.192;9.000;2022-12-18T06:38:41;99680.25;;;0.94;69.00
61434;BME280;47300;46.192;9.000;2022-12-18T06:41:18;99685.69;;;0.98;64.38
61434;BME280;47300;46.192;9.000;2022-12-18T06:43:44;99679.22;;;1.07;62.58
61434;BME280;47300;46.192;9.000;2022-12-18T06:46:09;99684.72;;;1.13;63.07
61434;BME280;47300;46.192;9.000;2022-12-18T06:48:35;99688.44;;;1.01;68.97
61434;BME280;47300;46.192;9.000;2022-12-18T06:51:01;99687.50;;;1.16;70.63
61434;BME280;47300;46.192;9.000;2022-12-18T06:53:26;99693.53;;;1.17;70.17
61434;BME280;47300;46.192;9.000;2022-12-18T06:55:52;99699.94;;;1.23;66.98
61434;BME280;47300;46.192;9.000;2022-12-18T06:58:18;99691.38;;;1.24;71.05
61434;BME280;47300;46.192;9.000;2022-12-18T07:00:43;99694.28;;;1.14;71.04
61434;BME280;47300;46.192;9.000;2022-12-18T07:03:08;99698.28;;;1.09;73.79
61434;BME280;47300;46.192;9.000;2022-12-18T07:05:34;99700.88;;;1.09;75.13
61434;BME280;47300;46.192;9.000;2022-12-18T07:08:04;99709.13;;;1.01;73.75
61434;BME280;47300;46.192;9.000;2022-12-18T07:10:29;99718.88;;;0.91;71.62
61434;BME280;47300;46.192;9.000;2022-12-18T07:12:54;99724.31;;;0.64;71.41
61434;BME280;47300;46.192;9.000;2022-12-18T07:15:20;99732.31;;;0.68;72.15
61434;BME280;47300;46.192;9.000;2022-12-18T07:17:45;99740.16;;;0.70;72.40
61434;BME280;47300;46.192;9.000;2022-12-18T07:20:10;99751.75;;;0.77;73.61
61434;BME280;47300;46.192;9.000;2022-12-18T07:22:36;99755.78;;;0.11;77.92
61434;BME280;47300;46.192;9.000;2022-12-18T07:25:01;99763.53;;;0.41;78.45
61434;BME280;47300;46.192;9.000;2022-12-18T07:27:27;99766.31;;;0.45;80.28
61434;BME280;47300;46.192;9.000;2022-12-18T07:29:52;99769.56;;;0.72;78.10
61434;BME280;47300;46.192;9.000;2022-12-18T07:32:17;99773.75;;;0.85;78.38
61434;BME280;47300;46.192;9.000;2022-12-18T07:34:43;99776.88;;;0.49;83.38
61434;BME280;47300;46.192;9.000;2022-12-18T07:37:08;99779.47;;;0.64;80.79
61434;BME280;47300;46.192;9.000;2022-12-18T07:39:34;99781.16;;;0.64;78.63
61434;BME280;47300;46.192;9.000;2022-12-18T07:41:59;99784.00;;;0.53;78.22
61434;BME280;47300;46.192;9.000;2022-12-18T07:44:43;99787.72;;;0.74;79.62
61434;BME280;47300;46.192;9.000;2022-12-18T07:47:08;99795.75;;;0.78;79.23
61434;BME280;47300;46.192;9.000;2022-12-18T07:49:33;99796.44;;;0.76;77.76
61434;BME280;47300;46.192;9.000;2022-12-18T07:51:59;99802.25;;;0.56;79.62
61434;BME280;47300;46.192;9.000;2022-12-18T07:54:24;99807.44;;;0.71;79.50
61434;BME280;47300;46.192;9.000;2022-12-18T07:56:50;99806.66;;;0.57;79.86
61434;BME280;47300;46.192;9.000;2022-12-18T07:59:17;99803.28;;;0.43;79.92
61434;BME280;47300;46.192;9.000;2022-12-18T08:01:42;99809.31;;;0.29;80.30
61434;BME280;47300;46.192;9.000;2022-12-18T08:04:07;99815.28;;;0.58;79.88
61434;BME280;47300;46.192;9.000;2022-12-18T08:06:33;99808.41;;;0.74;78.60
61434;BME280;47300;46.192;9.000;2022-12-18T08:08:58;99810.56;;;0.81;77.45
61434;BME280;47300;46.192;9.000;2022-12-18T08:11:25;99814.47;;;0.89;78.59
61434;BME280;47300;46.192;9.000;2022-12-18T08:13:51;99821.38;;;0.59;78.73
61434;BME280;47300;46.192;9.000;2022-12-18T08:16:17;99823.22;;;0.46;80.01
61434;BME280;47300;46.192;9.000;2022-12-18T08:18:43;99816.97;;;0.12;84.09
61434;BME280;47300;46.192;9.000;2022-12-18T08:21:09;99819.63;;;0.29;85.49
61434;BME280;47300;46.192;9.000;2022-12-18T08:23:35;99822.25;;;0.59;75.08
61434;BME280;47300;46.192;9.000;2022-12-18T08:26:00;99820.00;;;0.80;71.14
61434;BME280;47300;46.192;9.000;2022-12-18T08:28:26;99823.03;;;0.88;69.06
61434;BME280;47300;46.192;9.000;2022-12-18T08:30:52;99829.88;;;0.72;77.07
61434;BME280;47300;46.192;9.000;2022-12-18T08:33:17;99825.94;;;0.94;78.54
61434;BME280;47300;46.192;9.000;2022-12-18T08:35:42;99825.59;;;0.88;77.45
61434;BME280;47300;46.192;9.000;2022-12-18T08:38:08;99821.22;;;1.02;78.47
61434;BME280;47300;46.192;9.000;2022-12-18T08:40:33;99825.16;;;1.27;71.83
61434;BME280;47300;46.192;9.000;2022-12-18T08:42:58;99824.25;;;1.41;72.60
61434;BME280;47300;46.192;9.000;2022-12-18T08:45:43;99823.31;;;1.24;75.26
61434;BME280;47300;46.192;9.000;2022-12-18T08:48:08;99831.75;;;1.05;68.49
61434;BME280;47300;46.192;9.000;2022-12-18T08:50:34;99833.75;;;1.11;71.27
61434;BME280;47300;46.192;9.000;2022-12-18T08:53:00;99844.59;;;0.89;71.26
61434;BME280;47300;46.192;9.000;2022-12-18T08:55:25;99844.88;;;0.78;67.29
61434;BME280;47300;46.192;9.000;2022-12-18T08:57:50;99845.16;;;0.83;66.44
61434;BME280;47300;46.192;9.000;2022-12-18T09:00:16;99849.41;;;0.97;62.71
61434;BME280;47300;46.192;9.000;2022-12-18T09:02:41;99851.44;;;1.03;59.02
61434;BME280;47300;46.192;9.000;2022-12-18T09:05:07;99854.34;;;1.24;59.11
61434;BME280;47300;46.192;9.000;2022-12-18T09:07:32;99857.72;;;1.38;59.66
61434;BME280;47300;46.192;9.000;2022-12-18T09:09:58;99856.06;;;1.72;58.11
61434;BME280;47300;46.192;9.000;2022-12-18T09:12:23;99861.44;;;1.92;58.44
61434;BME280;47300;46.192;9.000;2022-12-18T09:14:48;99853.63;;;2.25;57.43
61434;BME280;47300;46.192;9.000;2022-12-18T09:17:14;99853.84;;;2.63;55.53
61434;BME280;47300;46.192;9.000;2022-12-18T09:19:39;99846.75;;;2.77;54.69
61434;BME280;47300;46.192;9.000;2022-12-18T09:22:05;99839.03;;;2.96;55.27
61434;BME280;47300;46.192;9.000;2022-12-18T09:24:30;99839.03;;;3.14;54.68
61434;BME280;47300;46.192;9.000;2022-12-18T09:26:55;99841.03;;;3.38;53.15
61434;BME280;47300;46.192;9.000;2022-12-18T09:29:21;99842.22;;;3.45;52.07
61434;BME280;47300;46.192;9.000;2022-12-18T09:31:47;99838.72;;;3.44;52.54
61434;BME280;47300;46.192;9.000;2022-12-18T09:34:12;99842.50;;;3.51;54.26
61434;BME280;47300;46.192;9.000;2022-12-18T09:36:38;99834.88;;;3.74;54.96
61434;BME280;47300;46.192;9.000;2022-12-18T09:39:04;99849.72;;;3.02;54.28
61434;BME280;47300;46.192;9.000;2022-12-18T09:46:59;99835.44;;;2.58;53.16
61434;BME280;47300;46.192;9.000;2022-12-18T09:49:29;99840.44;;;2.71;53.33
61434;BME280;47300;46.192;9.000;2022-12-18T09:52:02;99841.13;;;2.85;52.73
61434;BME280;47300;46.192;9.000;2022-12-18T09:54:38;99846.38;;;2.87;52.81
61434;BME280;47300;46.192;9.000;2022-12-18T09:57:04;99846.09;;;2.99;50.54
61434;BME280;47300;46.192;9.000;2022-12-18T09:59:38;99832.06;;;3.31;49.74
61434;BME280;47300;46.192;9.000;2022-12-18T10:02:25;99835.31;;;3.83;48.27
61434;BME280;47300;46.192;9.000;2022-12-18T10:05:01;99828.22;;;3.79;48.24
61434;BME280;47300;46.192;9.000;2022-12-18T10:10:12;99825.66;;;4.40;45.54
61434;BME280;47300;46.192;9.000;2022-12-18T10:16:09;99831.25;;;4.91;44.58
61434;BME280;47300;46.192;9.000;2022-12-18T10:21:15;99825.75;;;4.22;46.99
61434;BME280;47300;46.192;9.000;2022-12-18T10:26:09;99824.69;;;4.38;45.13
61434;BME280;47300;46.192;9.000;2022-12-18T10:28:36;99818.88;;;3.65;48.28
61434;BME280;47300;46.192;9.000;2022-12-18T10:31:05;99818.22;;;3.88;49.38
61434;BME280;47300;46.192;9.000;2022-12-18T10:33:32;99812.91;;;3.47;50.25
61434;BME280;47300;46.192;9.000;2022-12-18T10:35:58;99809.06;;;3.39;51.50
61434;BME280;47300;46.192;9.000;2022-12-18T10:38:31;99815.22;;;3.79;52.52
61434;BME280;47300;46.192;9.000;2022-12-18T10:41:04;99810.25;;;3.46;52.30
61434;BME280;47300;46.192;9.000;2022-12-18T10:43:35;99814.78;;;3.70;51.11
61434;BME280;47300;46.192;9.000;2022-12-18T10:51:05;99817.13;;;4.03;49.27
61434;BME280;47300;46.192;9.000;2022-12-18T10:53:33;99818.03;;;4.44;50.44
61434;BME280;47300;46.192;9.000;2022-12-18T10:55:59;99814.44;;;4.83;49.19
61434;BME280;47300;46.192;9.000;2022-12-18T10:58:29;99809.72;;;5.40;47.75
61434;BME280;47300;46.192;9.000;2022-12-18T11:01:17;99813.97;;;5.15;47.72
61434;BME280;47300;46.192;9.000;2022-12-18T11:06:18;99812.91;;;4.67;46.15
61434;BME280;47300;46.192;9.000;2022-12-18T11:09:01;99809.28;;;4.85;45.17
61434;BME280;47300;46.192;9.000;2022-12-18T11:11:28;99810.91;;;5.48;47.02
61434;BME280;47300;46.192;9.000;2022-12-18T11:14:01;99815.88;;;5.42;44.50
61434;BME280;47300;46.192;9.000;2022-12-18T11:16:28;99816.41;;;5.56;44.73
61434;BME280;47300;46.192;9.000;2022-12-18T11:18:54;99819.47;;;5.22;46.94
61434;BME280;47300;46.192;9.000;2022-12-18T11:21:19;99814.31;;;5.24;45.99
61434;BME280;47300;46.192;9.000;2022-12-18T11:23:54;99813.66;;;5.30;44.54
61434;BME280;47300;46.192;9.000;2022-12-18T11:26:19;99818.09;;;5.78;43.52
61434;BME280;47300;46.192;9.000;2022-12-18T11:29:07;99817.03;;;5.50;42.57
61434;BME280;47300;46.192;9.000;2022-12-18T11:31:33;99807.50;;;5.98;44.29
61434;BME280;47300;46.192;9.000;2022-12-18T11:34:24;99805.28;;;6.07;43.00
61434;BME280;47300;46.192;9.000;2022-12-18T11:36:52;99809.66;;;6.08;42.47
61434;BME280;47300;46.192;9.000;2022-12-18T11:39:31;99798.81;;;5.97;42.50
61434;BME280;47300;46.192;9.000;2022-12-18T11:42:05;99795.38;;;5.98;41.40
61434;BME280;47300;46.192;9.000;2022-12-18T11:47:49;99787.38;;;5.93;41.82
61434;BME280;47300;46.192;9.000;2022-12-18T11:50:20;99783.22;;;6.23;43.00
61434;BME280;47300;46.192;9.000;2022-12-18T11:52:47;99775.59;;;6.81;41.51
61434;BME280;47300;46.192;9.000;2022-12-18T11:55:21;99769.28;;;7.29;41.50
61434;BME280;47300;46.192;9.000;2022-12-18T11:57:55;99777.22;;;7.05;40.96
61434;BME280;47300;46.192;9.000;2022-12-18T12:00:24;99769.28;;;7.31;39.15
61434;BME280;47300;46.192;9.000;2022-12-18T12:05:50;99773.16;;;6.86;37.93
61434;BME280;47300;46.192;9.000;2022-12-18T12:16:15;99758.00;;;6.48;38.77
61434;BME280;47300;46.192;9.000;2022-12-18T12:24:14;99749.09;;;6.96;39.34
61434;BME280;47300;46.192;9.000;2022-12-18T12:27:07;99752.59;;;6.69;39.73
61434;BME280;47300;46.192;9.000;2022-12-18T12:30:03;99741.97;;;6.63;39.65
61434;BME280;47300;46.192;9.000;2022-12-18T12:38:06;99745.09;;;7.36;38.63
61434;BME280;47300;46.192;9.000;2022-12-18T12:40:35;99740.78;;;7.08;37.35
61434;BME280;47300;46.192;9.000;2022-12-18T12:43:31;99740.03;;;7.12;38.42
61434;BME280;47300;46.192;9.000;2022-12-18T12:46:21;99743.97;;;6.99;38.05
61434;BME280;47300;46.192;9.000;2022-12-18T12:48:58;99739.09;;;7.10;40.76
61434;BME280;47300;46.192;9.000;2022-12-18T12:51:29;99737.44;;;6.85;40.33
61434;BME280;47300;46.192;9.000;2022-12-18T12:53:57;99724.34;;;6.83;39.05
61434;BME280;47300;46.192;9.000;2022-12-18T12:56:30;99716.78;;;6.63;40.26
61434;BME280;47300;46.192;9.000;2022-12-18T12:59:22;99719.16;;;6.57;38.66
61434;BME280;47300;46.192;9.000;2022-12-18T13:02:18;99721.44;;;6.74;40.90
61434;BME280;47300;46.192;9.000;2022-12-18T13:07:51;99729.84;;;7.50;41.35
61434;BME280;47300;46.192;9.000;2022-12-18T13:17:49;99725.56;;;7.85;38.34
61434;BME280;47300;46.192;9.000;2022-12-18T13:20:36;99719.03;;;7.68;40.40
61434;BME280;47300;46.192;9.000;2022-12-18T13:31:08;99703.19;;;7.64;45.81
61434;BME280;47300;46.192;9.000;2022-12-18T13:33:46;99694.41;;;7.60;46.63
61434;BME280;47300;46.192;9.000;2022-12-18T13:38:43;99693.00;;;7.73;46.62
61434;BME280;47300;46.192;9.000;2022-12-18T13:43:51;99701.13;;;7.84;45.56
61434;BME280;47300;46.192;9.000;2022-12-18T13:46:24;99701.66;;;8.04;46.07
61434;BME280;47300;46.192;9.000;2022-12-18T13:49:04;99703.97;;;7.92;45.46
61434;BME280;47300;46.192;9.000;2022-12-18T13:51:33;99705.66;;;7.90;45.26
61434;BME280;47300;46.192;9.000;2022-12-18T13:54:18;99707.16;;;7.49;45.58
61434;BME280;47300;46.192;9.000;2022-12-18T13:56:47;99699.97;;;7.73;46.96
61434;BME280;47300;46.192;9.000;2022-12-18T13:59:16;99703.72;;;7.50;46.47
61434;BME280;47300;46.192;9.000;2022-12-18T14:01:57;99706.88;;;7.71;47.47
61434;BME280;47300;46.192;9.000;2022-12-18T14:06:51;99705.97;;;8.02;45.94
61434;BME280;47300;46.192;9.000;2022-12-18T14:09:25;99709.13;;;7.90;43.83
61434;BME280;47300;46.192;9.000;2022-12-18T14:11:51;99705.88;;;7.65;46.07
61434;BME280;47300;46.192;9.000;2022-12-18T14:14:18;99703.25;;;7.65;45.68
61434;BME280;47300;46.192;9.000;2022-12-18T14:16:45;99698.47;;;7.50;44.90
61434;BME280;47300;46.192;9.000;2022-12-18T14:19:16;99705.06;;;7.68;45.08
61434;BME280;47300;46.192;9.000;2022-12-18T14:21:49;99716.03;;;7.87;45.67
61434;BME280;47300;46.192;9.000;2022-12-18T14:24:17;99732.34;;;8.10;44.72
61434;BME280;47300;46.192;9.000;2022-12-18T14:26:44;99719.69;;;8.27;43.97
61434;BME280;47300;46.192;9.000;2022-12-18T14:32:10;99734.78;;;8.04;46.26
61434;BME280;47300;46.192;9.000;2022-12-18T14:34:37;99736.59;;;8.06;47.30
61434;BME280;47300;46.192;9.000;2022-12-18T14:37:02;99737.94;;;7.92;46.20
61434;BME280;47300;46.192;9.000;2022-12-18T14:39:28;99740.47;;;7.89;47.05
61434;BME280;47300;46.192;9.000;2022-12-18T14:41:53;99740.63;;;7.63;47.41
61434;BME280;47300;46.192;9.000;2022-12-18T14:44:18;99743.84;;;7.54;47.95
61434;BME280;47300;46.192;9.000;2022-12-18T14:46:47;99740.94;;;7.43;47.37
61434;BME280;47300;46.192;9.000;2022-12-18T14:49:24;99745.44;;;7.18;48.54
61434;BME280;47300;46.192;9.000;2022-12-18T14:51:56;99748.59;;;7.08;49.30
61434;BME280;47300;46.192;9.000;2022-12-18T14:54:24;99749.88;;;6.93;47.79
61434;BME280;47300;46.192;9.000;2022-12-18T14:57:01;99747.91;;;6.86;51.07
61434;BME280;47300;46.192;9.000;2022-12-18T14:59:28;99748.47;;;6.76;51.99